Time;durP1;ratioP1;P1;durP2;ratioP2;P2;SDS_P1;SDS_P2;PMS_P1;PMS_P2;Temp;Humidity;BMP_temperature;BMP_pressure;BME280_temperature;BME280_humidity;BME280_pressure;Samples;Min_cycle;Max_cycle;Signal;HPM_P1;HPM_P2
2022/01/21 00:01:38;;;;;;;92.33;25.70;;;;;;;-3.13;75.38;97599.53;5040939;28;20397;-70
2022/01/21 00:04:05;;;;;;;83.70;22.87;;;;;;;-3.15;75.46;97600.81;5048115;28;20482;-69
2022/01/21 00:06:33;;;;;;;90.67;24.07;;;;;;;-3.11;75.11;97595.78;5046532;28;20068;-70
2022/01/21 00:08:59;;;;;;;75.23;22.83;;;;;;;-3.09;74.93;97597.19;5050853;28;20198;-68
2022/01/21 00:11:30;;;;;;;81.33;23.80;;;;;;;-3.11;74.98;97590.44;5043071;28;20570;-70
2022/01/21 00:13:57;;;;;;;77.10;22.07;;;;;;;-3.15;75.25;97579.41;5049769;28;20236;-70
2022/01/21 00:16:25;;;;;;;78.40;22.20;;;;;;;-3.08;74.74;97595.31;5048479;28;20037;-69
2022/01/21 00:18:59;;;;;;;75.83;23.33;;;;;;;-3.17;74.57;97579.66;5045757;28;20082;-69
2022/01/21 00:32:30;;;;;;;77.90;18.97;;;;;;;-3.26;74.36;97591.00;5052024;28;20042;-68
2022/01/21 00:34:58;;;;;;;62.23;19.23;;;;;;;-3.32;74.28;97587.41;5036324;28;20049;-69
2022/01/21 00:37:25;;;;;;;57.67;20.20;;;;;;;-3.26;74.30;97591.78;5043319;28;20048;-68
2022/01/21 00:39:53;;;;;;;61.10;18.40;;;;;;;-3.28;74.15;97594.72;5042927;28;20056;-68
2022/01/21 00:44:49;;;;;;;54.03;18.10;;;;;;;-3.31;73.99;97589.81;5047091;28;20517;-68
2022/01/21 00:47:15;;;;;;;63.87;18.30;;;;;;;-3.26;73.85;97601.69;5038920;28;20521;-69
2022/01/21 00:49:42;;;;;;;56.47;17.77;;;;;;;-3.28;73.99;97599.25;5047744;28;20135;-68
2022/01/21 00:52:12;;;;;;;62.80;20.57;;;;;;;-3.21;73.63;97589.19;5041708;28;20048;-68
2022/01/21 00:54:40;;;;;;;55.97;17.70;;;;;;;-3.21;73.49;97591.88;5046577;28;20512;-68
2022/01/21 00:57:07;;;;;;;78.67;19.07;;;;;;;-3.24;73.39;97594.22;5036570;28;20558;-68
2022/01/21 00:59:33;;;;;;;63.00;20.87;;;;;;;-3.21;73.64;97593.75;5038232;28;20053;-70
2022/01/21 01:01:59;;;;;;;63.27;18.57;;;;;;;-3.22;73.12;97603.63;5048391;28;20318;-69
2022/01/21 01:04:27;;;;;;;68.60;21.90;;;;;;;-3.19;73.29;97599.66;5045412;28;20057;-70
2022/01/21 01:06:53;;;;;;;69.80;21.17;;;;;;;-3.19;73.35;97587.13;5033226;28;20077;-70
2022/01/21 01:09:21;;;;;;;74.90;19.63;;;;;;;-3.18;73.20;97602.09;5042526;28;20583;-69
2022/01/21 01:20:02;;;;;;;75.00;18.87;;;;;;;-3.21;73.05;97599.09;5031515;28;20505;-68
2022/01/21 01:22:41;;;;;;;75.87;19.77;;;;;;;-3.17;72.93;97600.22;5038669;28;20190;-70
2022/01/21 01:27:57;;;;;;;71.77;21.53;;;;;;;-3.17;72.80;97589.53;5034166;28;20069;-69
2022/01/21 01:30:27;;;;;;;63.77;19.57;;;;;;;-3.15;72.64;97598.13;5041453;28;20053;-69
2022/01/21 01:32:59;;;;;;;59.47;19.37;;;;;;;-3.21;72.87;97577.72;5041621;28;20050;-69
2022/01/21 01:35:28;;;;;;;68.53;20.17;;;;;;;-3.17;72.92;97602.91;5037195;28;20394;-70
2022/01/21 01:51:12;;;;;;;64.20;19.37;;;;;;;-3.09;72.27;97585.66;5041308;28;20053;-69
2022/01/21 01:53:43;;;;;;;56.57;20.03;;;;;;;-3.20;72.25;97569.47;5036824;28;20037;-69
2022/01/21 01:56:13;;;;;;;69.07;19.30;;;;;;;-3.14;72.23;97583.72;5043358;28;20079;-69
2022/01/21 01:58:41;;;;;;;75.20;21.83;;;;;;;-3.09;72.27;97580.31;5046561;28;20041;-70
2022/01/21 02:01:08;;;;;;;67.10;20.37;;;;;;;-3.10;72.24;97574.19;5046345;28;20056;-69
2022/01/21 02:03:35;;;;;;;67.77;19.00;;;;;;;-3.08;72.19;97579.25;5044184;28;20044;-69
2022/01/21 02:06:05;;;;;;;87.00;23.10;;;;;;;-3.07;72.14;97581.72;5038879;28;20068;-69
2022/01/21 02:08:33;;;;;;;91.53;26.97;;;;;;;-3.08;72.18;97576.59;5032149;28;20073;-69
2022/01/21 02:10:59;;;;;;;83.05;25.88;;;;;;;-3.18;72.35;97556.66;5038800;28;20041;-70
2022/01/21 02:13:38;;;;;;;80.60;27.43;;;;;;;-3.08;72.56;97571.25;5047102;28;20053;-69
2022/01/21 02:16:11;;;;;;;;;;;;;;;-3.06;72.56;97564.63;5031270;28;20056;-68
2022/01/21 02:21:39;;;;;;;62.87;21.00;;;;;;;-3.22;72.30;97560.03;5038097;28;20077;-69
2022/01/21 02:24:11;;;;;;;82.17;25.67;;;;;;;-3.15;72.59;97569.53;5039331;28;20041;-68
2022/01/21 02:26:38;;;;;;;61.40;21.13;;;;;;;-3.15;72.43;97571.41;5035879;28;20048;-69
2022/01/21 02:29:06;;;;;;;61.45;21.65;;;;;;;-3.16;72.55;97575.94;5047342;28;20057;-68
2022/01/21 02:31:34;;;;;;;69.67;24.33;;;;;;;-3.14;72.44;97567.66;5011004;28;20084;-69
2022/01/21 02:34:01;;;;;;;89.57;28.33;;;;;;;-3.15;72.58;97576.75;5041513;28;20081;-69
2022/01/21 02:36:29;;;;;;;69.03;24.58;;;;;;;-3.23;72.51;97566.44;5031437;28;20104;-68
2022/01/21 02:38:59;;;;;;;67.50;25.95;;;;;;;-3.18;72.85;97575.38;5022026;28;20052;-69
2022/01/21 02:41:25;;;;;;;69.40;22.93;;;;;;;-3.15;72.36;97576.75;5040856;28;20041;-69
2022/01/21 02:43:52;;;;;;;77.60;24.80;;;;;;;-3.16;72.42;97570.59;5034700;28;20049;-69
2022/01/21 02:46:21;;;;;;;78.40;25.17;;;;;;;-3.17;72.55;97573.50;5033662;28;20046;-69
2022/01/21 02:48:48;;;;;;;78.80;27.47;;;;;;;-3.17;72.43;97555.59;5037665;28;20056;-69
2022/01/21 02:51:14;;;;;;;;;;;;;;;-3.17;72.46;97563.63;5042816;28;20046;-69
2022/01/21 02:56:12;;;;;;;78.70;24.97;;;;;;;-3.21;72.33;97556.31;5032260;28;20049;-68
2022/01/21 02:58:39;;;;;;;71.80;23.60;;;;;;;-3.22;72.27;97552.81;5040771;28;20471;-70
2022/01/21 03:01:07;;;;;;;107.13;29.80;;;;;;;-3.30;72.41;97542.53;5032942;28;20506;-70
2022/01/21 03:03:33;;;;;;;;;;;;;;;-3.25;72.48;97547.97;5033873;28;20051;-68
2022/01/21 03:06:01;;;;;;;71.57;25.03;;;;;;;-3.27;72.51;97552.75;5045127;28;19931;-68
2022/01/21 03:08:27;;;;;;;;;;;;;;;-3.28;72.36;97553.78;5043955;28;20136;-69
2022/01/21 03:10:55;;;;;;;85.40;26.97;;;;;;;-3.28;72.44;97548.44;5035498;28;20248;-68
2022/01/21 03:13:22;;;;;;;87.47;26.53;;;;;;;-3.34;72.64;97549.41;5038947;28;20045;-69
2022/01/21 03:15:53;;;;;;;64.87;24.07;;;;;;;-3.30;72.61;97547.88;5028025;28;20041;-69
2022/01/21 03:18:20;;;;;;;74.83;24.67;;;;;;;-3.29;72.48;97546.81;5039134;28;20048;-69
2022/01/21 03:20:46;;;;;;;78.35;23.80;;;;;;;-3.28;72.35;97538.59;5039656;28;20451;-68
2022/01/21 03:23:16;;;;;;;75.60;24.47;;;;;;;-3.34;72.36;97530.72;5027195;28;20054;-68
2022/01/21 03:25:44;;;;;;;76.37;25.20;;;;;;;-3.29;72.44;97531.59;5041118;28;20055;-69
2022/01/21 03:28:14;;;;;;;73.87;23.40;;;;;;;-3.26;72.59;97530.31;5031750;28;20049;-68
2022/01/21 03:30:42;;;;;;;69.40;24.00;;;;;;;-3.24;72.40;97530.06;5041954;28;20434;-68
2022/01/21 03:33:13;;;;;;;72.30;25.37;;;;;;;-3.20;72.20;97529.38;5044307;28;20580;-68
2022/01/21 03:35:43;;;;;;;72.77;25.07;;;;;;;-3.18;72.10;97523.75;5035183;28;20041;-69
2022/01/21 03:38:10;;;;;;;78.15;24.02;;;;;;;-3.17;71.94;97525.38;5048919;28;20052;-69
2022/01/21 03:40:36;;;;;;;77.97;25.03;;;;;;;-3.21;72.00;97534.94;5042045;28;20383;-68
2022/01/21 03:43:05;;;;;;;82.93;26.00;;;;;;;-3.18;71.92;97537.94;5049622;28;20084;-68
2022/01/21 03:45:34;;;;;;;79.90;25.37;;;;;;;-3.19;71.59;97536.31;5042979;28;20046;-68
2022/01/21 03:48:00;;;;;;;80.50;27.20;;;;;;;-3.19;71.58;97525.63;5048947;28;20052;-68
2022/01/21 03:50:32;;;;;;;87.33;28.20;;;;;;;-3.22;71.49;97515.41;5051292;28;20141;-69
2022/01/21 03:53:01;;;;;;;91.43;27.17;;;;;;;-3.19;71.31;97516.78;5031692;28;20140;-69
2022/01/21 03:55:28;;;;;;;84.88;27.02;;;;;;;-3.20;71.64;97523.19;5035375;28;20523;-68
2022/01/21 03:57:55;;;;;;;83.10;27.17;;;;;;;-3.23;71.30;97527.16;5039172;28;20092;-69
2022/01/21 04:00:25;;;;;;;86.28;25.83;;;;;;;-3.27;71.36;97528.69;5038467;28;20056;-69
2022/01/21 04:02:53;;;;;;;96.70;28.37;;;;;;;-3.28;71.37;97537.75;5033845;28;20041;-69
2022/01/21 04:05:23;;;;;;;91.33;28.60;;;;;;;-3.28;71.15;97540.44;5041581;28;20053;-68
2022/01/21 04:07:49;;;;;;;84.90;27.30;;;;;;;-3.33;71.04;97533.13;5034566;28;20056;-68
2022/01/21 04:10:19;;;;;;;95.63;28.90;;;;;;;-3.25;70.97;97547.16;5046685;28;20132;-68
2022/01/21 04:12:45;;;;;;;82.77;27.07;;;;;;;-3.30;70.94;97537.97;5040013;28;20102;-68
2022/01/21 04:15:12;;;;;;;95.87;29.80;;;;;;;-3.28;70.84;97551.94;5032640;28;20075;-69
2022/01/21 04:17:38;;;;;;;86.10;27.93;;;;;;;-3.31;70.84;97555.06;5043408;28;20049;-68
2022/01/21 04:20:11;;;;;;;98.07;29.25;;;;;;;-3.37;70.58;97556.03;5019652;28;20045;-70
2022/01/21 04:22:38;;;;;;;91.20;27.70;;;;;;;-3.38;70.53;97543.72;5044570;28;20052;-69
2022/01/21 04:25:05;;;;;;;93.17;28.63;;;;;;;-3.37;70.48;97549.88;5040918;28;20136;-69
2022/01/21 04:27:32;;;;;;;97.80;29.30;;;;;;;-3.42;70.47;97550.63;5033404;28;20572;-69
2022/01/21 04:29:59;;;;;;;94.67;27.67;;;;;;;-3.46;70.38;97544.09;5032535;28;20382;-70
2022/01/21 04:32:33;;;;;;;98.87;29.33;;;;;;;-3.44;70.40;97556.19;5040971;28;20072;-69
2022/01/21 04:35:01;;;;;;;91.57;26.60;;;;;;;-3.45;70.26;97553.75;5041429;28;20501;-70
2022/01/21 04:37:28;;;;;;;91.70;28.60;;;;;;;-3.49;70.12;97558.78;5038109;28;20041;-69
2022/01/21 04:47:40;;;;;;;91.97;29.63;;;;;;;-3.53;70.05;97544.25;5043425;28;20087;-69
2022/01/21 04:50:12;;;;;;;94.37;27.63;;;;;;;-3.47;70.20;97539.81;5047982;28;20045;-70
2022/01/21 04:52:45;;;;;;;104.00;27.47;;;;;;;-3.48;69.88;97539.00;5038785;28;20088;-71
2022/01/21 04:55:37;;;;;;;94.10;28.40;;;;;;;-3.55;69.89;97549.00;5052332;28;20095;-69
2022/01/21 04:58:04;;;;;;;94.97;28.85;;;;;;;-3.52;69.91;97551.22;5051998;28;20425;-70
2022/01/21 05:00:30;;;;;;;103.07;27.23;;;;;;;-3.54;69.77;97555.97;5041400;28;20041;-70
2022/01/21 05:02:59;;;;;;;84.57;26.70;;;;;;;-3.66;70.00;97545.34;5034180;28;20521;-70
2022/01/21 05:05:26;;;;;;;84.13;26.87;;;;;;;-3.61;70.01;97553.44;5052117;28;20175;-70
2022/01/21 05:07:54;;;;;;;91.17;27.10;;;;;;;-3.57;69.75;97543.94;5052579;28;20052;-70
2022/01/21 05:10:24;;;;;;;94.37;28.33;;;;;;;-3.59;69.72;97550.56;5045852;28;20084;-69
2022/01/21 05:12:50;;;;;;;92.07;27.17;;;;;;;-3.66;69.60;97534.66;5051520;28;20459;-71
2022/01/21 05:15:25;;;;;;;110.10;28.37;;;;;;;-3.65;69.69;97538.16;5039855;28;20045;-70
2022/01/21 05:17:52;;;;;;;96.30;28.40;;;;;;;-3.65;69.58;97535.47;5038269;28;20056;-69
2022/01/21 05:20:30;;;;;;;79.47;24.57;;;;;;;-3.60;69.62;97536.38;5041971;28;20581;-69
2022/01/21 05:23:10;;;;;;;86.40;26.73;;;;;;;-3.63;69.29;97539.53;5048180;28;20075;-69
2022/01/21 05:25:36;;;;;;;101.40;26.20;;;;;;;-3.60;69.23;97548.94;5048955;28;20123;-69
2022/01/21 05:28:03;;;;;;;82.73;24.47;;;;;;;-3.58;69.18;97541.47;5040524;28;20054;-70
2022/01/21 05:30:34;;;;;;;88.43;26.90;;;;;;;-3.57;69.00;97535.09;5029673;28;20046;-70
2022/01/21 05:33:10;;;;;;;92.40;26.53;;;;;;;-3.57;68.89;97527.91;5033531;28;20052;-70
2022/01/21 05:35:56;;;;;;;87.67;24.97;;;;;;;-3.55;68.87;97530.31;5037518;28;20493;-70
2022/01/21 05:38:50;;;;;;;83.00;26.60;;;;;;;-3.59;68.93;97521.16;5041289;28;20314;-69
2022/01/21 05:41:51;;;;;;;79.67;26.17;;;;;;;-3.61;68.60;97510.69;5047018;28;20122;-70
2022/01/21 05:47:32;;;;;;;89.60;26.33;;;;;;;-3.65;68.87;97509.56;5040494;28;20045;-71
2022/01/21 05:50:28;;;;;;;87.90;24.83;;;;;;;-3.65;68.87;97506.91;5028713;28;20061;-72
2022/01/21 05:53:04;;;;;;;86.17;25.73;;;;;;;-3.63;68.58;97507.47;5031671;28;20140;-70
2022/01/21 05:56:02;;;;;;;102.30;28.40;;;;;;;-3.57;68.60;97497.69;5043062;28;20049;-70
2022/01/21 05:58:32;;;;;;;85.93;26.40;;;;;;;-3.63;68.59;97496.78;5048010;28;20048;-69
2022/01/21 06:01:00;;;;;;;104.40;27.57;;;;;;;-3.65;68.44;97493.53;5047019;28;20107;-70
2022/01/21 06:03:26;;;;;;;98.10;27.53;;;;;;;-3.60;68.32;97490.16;5045689;28;20049;-71
2022/01/21 06:05:52;;;;;;;99.90;29.27;;;;;;;-3.64;68.25;97487.13;5030853;28;20051;-70
2022/01/21 06:08:19;;;;;;;106.17;28.50;;;;;;;-3.64;68.25;97489.03;5032570;28;20088;-71
2022/01/21 06:10:45;;;;;;;105.73;28.07;;;;;;;-3.64;68.04;97486.34;5044774;28;20045;-70
2022/01/21 06:13:16;;;;;;;98.40;29.60;;;;;;;-3.67;68.14;97489.47;5031303;28;20541;-70
2022/01/21 06:15:42;;;;;;;82.70;26.73;;;;;;;-3.64;68.35;97486.34;5042152;28;20059;-70
2022/01/21 06:18:08;;;;;;;82.70;28.23;;;;;;;-3.68;68.10;97483.34;5043316;28;20054;-70
2022/01/21 06:20:34;;;;;;;88.43;28.17;;;;;;;-3.65;67.95;97480.19;5032731;28;20541;-70
2022/01/21 06:23:01;;;;;;;89.90;27.30;;;;;;;-3.63;67.79;97475.41;5031475;28;20115;-69
2022/01/21 06:25:27;;;;;;;89.93;28.27;;;;;;;-3.65;67.46;97476.72;5032359;28;20053;-70
2022/01/21 06:27:54;;;;;;;92.33;28.00;;;;;;;-3.70;67.52;97472.09;5040508;28;20041;-70
2022/01/21 06:30:21;;;;;;;88.00;28.07;;;;;;;-3.68;67.44;97467.31;5047695;28;20045;-71
2022/01/21 06:32:48;;;;;;;90.15;29.33;;;;;;;-3.67;67.29;97468.09;5032126;28;20083;-71
2022/01/21 06:35:14;;;;;;;95.50;28.50;;;;;;;-3.71;67.24;97473.13;5031642;28;20075;-71
2022/01/21 06:37:41;;;;;;;96.83;29.97;;;;;;;-3.70;67.32;97475.53;5031665;28;20562;-70
2022/01/21 06:40:08;;;;;;;84.97;27.77;;;;;;;-3.72;67.17;97474.97;5042001;28;20152;-70
2022/01/21 06:42:35;;;;;;;80.97;27.37;;;;;;;-3.73;67.20;97456.53;5035280;28;20041;-70
2022/01/21 06:45:02;;;;;;;99.13;28.37;;;;;;;-3.70;66.93;97456.06;5037049;28;20041;-69
2022/01/21 06:47:31;;;;;;;98.20;29.23;;;;;;;-3.73;67.02;97457.34;5047467;28;20037;-65
2022/01/21 06:49:59;;;;;;;88.10;27.60;;;;;;;-3.75;66.50;97448.75;5026395;28;20037;-66
2022/01/21 06:52:26;;;;;;;83.80;27.83;;;;;;;-3.66;66.65;97459.84;5048051;28;20044;-67
2022/01/21 06:54:52;;;;;;;85.15;27.05;;;;;;;-3.66;66.53;97465.19;5047313;28;20176;-66
2022/01/21 06:57:18;;;;;;;86.67;28.40;;;;;;;-3.65;66.66;97452.66;5039635;28;20048;-66
2022/01/21 06:59:45;;;;;;;98.00;28.93;;;;;;;-3.68;66.30;97466.47;5049676;28;20421;-67
2022/01/21 07:02:11;;;;;;;86.23;27.27;;;;;;;-3.66;66.39;97475.09;5032893;28;20510;-68
2022/01/21 07:04:38;;;;;;;84.33;25.90;;;;;;;-3.68;66.31;97466.47;5042199;28;20049;-67
2022/01/21 07:07:04;;;;;;;;;;;;;;;-3.70;66.01;97466.75;5043891;28;20522;-67
2022/01/21 07:09:31;;;;;;;84.90;25.07;;;;;;;-3.78;65.95;97464.44;5036259;28;19925;-68
2022/01/21 07:11:57;;;;;;;81.17;26.93;;;;;;;-3.82;65.99;97466.78;5040569;28;20056;-68
2022/01/21 07:14:24;;;;;;;84.90;26.87;;;;;;;-3.99;66.08;97448.84;5050433;28;20588;-68
2022/01/21 07:16:50;;;;;;;79.30;27.40;;;;;;;-3.83;65.99;97470.50;5054739;28;20414;-69
2022/01/21 07:19:17;;;;;;;76.03;27.13;;;;;;;-3.83;66.15;97470.50;5046387;28;20048;-68
2022/01/21 07:21:44;;;;;;;75.53;27.53;;;;;;;-3.83;66.20;97467.81;5038548;28;20049;-69
2022/01/21 07:24:10;;;;;;;76.72;23.40;;;;;;;-3.84;66.13;97463.53;5051326;28;20497;-68
2022/01/21 07:26:36;;;;;;;73.17;25.87;;;;;;;-3.88;66.13;97471.22;5038604;28;20076;-68
2022/01/21 07:29:03;;;;;;;81.87;25.73;;;;;;;-3.96;66.21;97470.78;5058312;28;20048;-68
2022/01/21 07:31:29;;;;;;;77.77;28.83;;;;;;;-3.93;66.23;97468.44;5059744;28;20106;-66
2022/01/21 07:33:55;;;;;;;74.90;25.50;;;;;;;-4.00;66.43;97470.44;5023612;28;20452;-66
2022/01/21 07:36:21;;;;;;;83.83;27.00;;;;;;;-3.93;66.38;97478.31;5042718;28;20404;-69
2022/01/21 07:38:49;;;;;;;61.90;23.67;;;;;;;-3.95;66.59;97475.88;5046592;28;20049;-68
2022/01/21 07:41:15;;;;;;;70.90;26.20;;;;;;;-3.91;66.67;97474.34;5041538;28;20059;-69
2022/01/21 07:43:41;;;;;;;68.80;24.27;;;;;;;-3.84;66.76;97474.22;5039606;28;20144;-69
2022/01/21 07:46:07;;;;;;;74.20;27.13;;;;;;;-3.85;66.57;97467.25;5042969;28;20045;-69
2022/01/21 07:48:34;;;;;;;71.67;26.43;;;;;;;-3.81;66.41;97462.25;5039975;28;20076;-68
2022/01/21 07:51:00;;;;;;;77.57;24.30;;;;;;;-3.78;66.45;97459.09;5047440;28;20045;-68
2022/01/21 07:53:26;;;;;;;74.73;26.83;;;;;;;-3.80;66.59;97456.69;5050310;28;20147;-67
2022/01/21 07:56:04;;;;;;;66.70;24.03;;;;;;;-3.75;66.03;97453.28;5035196;28;20061;-69
2022/01/21 07:58:31;;;;;;;64.57;22.40;;;;;;;-3.80;66.00;97445.19;5041099;28;20408;-69
2022/01/21 08:00:57;;;;;;;63.90;21.30;;;;;;;-3.75;66.17;97445.25;5039704;28;20049;-66
2022/01/21 08:03:26;;;;;;;63.83;22.23;;;;;;;-3.76;65.76;97447.13;5037970;28;20115;-67
2022/01/21 08:05:52;;;;;;;61.57;22.60;;;;;;;-3.78;65.98;97438.56;5053318;28;20577;-69
2022/01/21 08:08:18;;;;;;;58.10;21.53;;;;;;;-3.76;65.82;97448.97;5046485;28;20045;-69
2022/01/21 08:10:44;;;;;;;60.03;19.77;;;;;;;-3.78;65.78;97453.75;5035554;28;20057;-70
2022/01/21 08:13:12;;;;;;;54.33;19.30;;;;;;;-3.78;65.81;97453.75;5049930;28;20053;-69
2022/01/21 08:15:38;;;;;;;;;;;;;;;-3.76;65.58;97455.16;5049907;28;20045;-69
2022/01/21 08:18:05;;;;;;;56.37;20.07;;;;;;;-3.81;65.31;97451.56;5048063;28;19974;-69
2022/01/21 08:20:34;;;;;;;58.60;19.58;;;;;;;-3.80;65.76;97461.19;5047571;28;20045;-69
2022/01/21 08:23:00;;;;;;;53.03;19.73;;;;;;;-3.85;65.76;97460.06;5034323;28;20095;-70
2022/01/21 08:25:27;;;;;;;55.07;20.00;;;;;;;-3.82;65.50;97452.63;5050280;28;20052;-70
2022/01/21 08:27:53;;;;;;;61.00;20.07;;;;;;;-3.77;65.39;97450.84;5047276;28;20041;-69
2022/01/21 08:30:21;;;;;;;54.63;19.17;;;;;;;-3.75;65.47;97442.59;5031344;28;20523;-69
2022/01/21 08:32:47;;;;;;;49.67;18.73;;;;;;;-3.70;65.49;97442.69;5036102;28;20176;-69
2022/01/21 08:35:13;;;;;;;52.03;17.67;;;;;;;-3.81;64.97;97433.69;5046577;28;20520;-70
2022/01/21 08:37:39;;;;;;;49.90;18.27;;;;;;;-3.78;65.62;97443.06;5039074;28;20132;-70
2022/01/21 08:40:08;;;;;;;50.17;18.50;;;;;;;-3.78;65.35;97443.91;5047224;28;20139;-70
2022/01/21 08:42:33;;;;;;;43.63;17.67;;;;;;;-3.76;65.15;97446.31;5050558;28;20045;-69
2022/01/21 08:45:00;;;;;;;45.40;16.80;;;;;;;-3.75;65.17;97432.72;5034107;28;20417;-69
2022/01/21 08:47:27;;;;;;;47.37;17.70;;;;;;;-3.78;65.03;97433.22;5041250;28;20107;-69
2022/01/21 08:49:55;;;;;;;55.42;20.60;;;;;;;-3.77;65.08;97417.97;5041298;28;20033;-69
2022/01/21 08:52:25;;;;;;;53.53;18.60;;;;;;;-3.73;65.07;97422.59;5024078;28;20052;-68
2022/01/21 08:54:52;;;;;;;44.80;16.00;;;;;;;-3.74;64.90;97421.00;5039932;28;20136;-69
2022/01/21 08:57:19;;;;;;;51.43;17.73;;;;;;;-3.69;64.88;97420.28;5041826;28;20045;-69
2022/01/21 08:59:46;;;;;;;49.97;18.10;;;;;;;-3.66;65.11;97427.00;5038544;28;20060;-69
2022/01/21 09:02:14;;;;;;;46.38;16.55;;;;;;;-3.65;64.79;97408.06;5050803;28;20052;-70
2022/01/21 09:04:42;;;;;;;46.80;16.30;;;;;;;-3.59;64.77;97404.44;5047813;28;20067;-69
2022/01/21 09:07:08;;;;;;;40.40;16.27;;;;;;;-3.61;64.87;97413.72;5036328;28;20092;-69
2022/01/21 09:09:35;;;;;;;42.30;16.77;;;;;;;-3.57;64.82;97402.31;5043715;28;20052;-69
2022/01/21 09:12:00;;;;;;;44.37;16.17;;;;;;;-3.57;64.59;97409.53;5043625;28;20052;-69
2022/01/21 09:14:27;;;;;;;42.37;16.23;;;;;;;-3.56;64.68;97411.13;5040074;28;20049;-69
2022/01/21 09:16:54;;;;;;;45.93;15.60;;;;;;;-3.54;64.75;97417.03;5047283;28;20076;-69
2022/01/21 09:19:20;;;;;;;43.37;16.00;;;;;;;-3.58;64.83;97408.72;5039187;28;20049;-69
2022/01/21 09:21:51;;;;;;;46.60;16.23;;;;;;;-3.56;64.89;97405.78;5045130;28;20091;-69
2022/01/21 09:24:19;;;;;;;48.23;16.70;;;;;;;-3.58;64.77;97397.22;5053402;28;20051;-68
2022/01/21 09:26:45;;;;;;;39.63;15.07;;;;;;;-3.52;64.58;97400.78;5046883;28;20045;-69
2022/01/21 09:29:12;;;;;;;46.00;16.45;;;;;;;-3.48;64.55;97401.91;5047113;28;20505;-70
2022/01/21 09:31:39;;;;;;;40.97;16.93;;;;;;;-3.46;64.67;97397.13;5043923;28;20053;-69
2022/01/21 09:34:06;;;;;;;44.83;17.10;;;;;;;-3.48;64.45;97399.25;5052704;28;20061;-70
2022/01/21 09:36:32;;;;;;;45.63;15.88;;;;;;;-3.51;64.49;97397.88;5052021;28;20135;-70
2022/01/21 09:39:00;;;;;;;41.20;15.53;;;;;;;-3.50;64.61;97393.34;5051352;28;20087;-71
2022/01/21 09:41:33;;;;;;;39.03;16.33;;;;;;;-3.56;64.37;97369.22;5035992;28;20390;-70
2022/01/21 09:44:03;;;;;;;50.07;16.87;;;;;;;-3.43;64.32;97383.31;5048140;28;20049;-70
2022/01/21 09:46:34;;;;;;;46.80;15.80;;;;;;;-3.41;64.22;97381.19;5050806;28;20053;-68
2022/01/21 09:49:09;;;;;;;45.63;15.67;;;;;;;-3.42;64.23;97376.91;5046163;28;20049;-70
2022/01/21 09:51:36;;;;;;;37.50;15.00;;;;;;;-3.42;64.35;97369.69;5045147;28;20049;-70
2022/01/21 09:54:06;;;;;;;48.30;14.53;;;;;;;-3.37;64.13;97376.16;5050742;28;20061;-67
2022/01/21 09:56:34;;;;;;;41.67;15.80;;;;;;;-3.36;63.93;97373.25;5045546;28;20048;-71
2022/01/21 09:59:02;;;;;;;40.17;15.63;;;;;;;-3.33;64.07;97369.28;5042971;28;20095;-70
2022/01/21 10:01:28;;;;;;;37.08;15.77;;;;;;;-3.31;64.00;97367.97;5041697;28;20045;-70
2022/01/21 10:03:54;;;;;;;41.53;14.90;;;;;;;-3.30;64.14;97366.13;5047417;28;20148;-70
2022/01/21 10:06:24;;;;;;;40.07;14.63;;;;;;;-3.23;63.97;97363.28;5036599;28;20041;-69
2022/01/21 10:08:55;;;;;;;45.00;16.27;;;;;;;-3.20;63.90;97360.13;5056909;28;20047;-71
2022/01/21 10:11:24;;;;;;;39.90;15.57;;;;;;;-3.19;63.98;97359.06;5045335;28;20484;-69
2022/01/21 10:13:51;;;;;;;41.73;16.13;;;;;;;-3.22;63.97;97355.00;5027229;28;20040;-70
2022/01/21 10:16:18;;;;;;;37.78;15.43;;;;;;;-3.21;63.77;97356.63;5035932;28;20099;-68
2022/01/21 10:19:00;;;;;;;37.23;14.93;;;;;;;-3.21;63.93;97351.28;5059944;28;20520;-68
2022/01/21 10:21:30;;;;;;;43.90;16.00;;;;;;;-3.20;63.68;97355.59;5033219;28;20045;-69
2022/01/21 10:24:04;;;;;;;34.03;14.13;;;;;;;-3.25;63.49;97357.38;5040018;28;20476;-68
2022/01/21 10:26:32;;;;;;;42.13;15.53;;;;;;;-3.53;63.66;97302.97;5035540;28;20045;-68
2022/01/21 10:29:01;;;;;;;39.45;14.85;;;;;;;-3.24;63.54;97337.59;5035429;28;20077;-69
2022/01/21 10:31:28;;;;;;;39.90;15.77;;;;;;;-3.26;63.73;97343.19;5038050;28;20053;-68
2022/01/21 10:33:56;;;;;;;44.60;15.70;;;;;;;-3.32;63.51;97339.63;5035117;28;20041;-67
2022/01/21 10:36:29;;;;;;;47.70;15.20;;;;;;;-3.32;63.55;97338.84;5043913;28;20100;-73
2022/01/21 10:39:05;;;;;;;45.60;14.27;;;;;;;-3.38;63.37;97345.13;5042660;28;20113;-71
2022/01/21 10:41:34;;;;;;;43.77;14.73;;;;;;;-3.45;63.31;97330.09;5046321;28;20037;-69
2022/01/21 10:44:09;;;;;;;43.13;14.53;;;;;;;-3.37;63.38;97323.53;5037979;28;20079;-69
2022/01/21 10:46:37;;;;;;;38.30;14.93;;;;;;;-3.37;63.23;97331.53;5033428;28;20036;-71
2022/01/21 10:49:06;;;;;;;36.47;13.57;;;;;;;-3.42;62.94;97313.56;5039182;28;20259;-70
2022/01/21 10:51:34;;;;;;;40.17;14.00;;;;;;;-3.38;63.15;97329.09;5048720;28;20045;-71
2022/01/21 10:54:18;;;;;;;40.57;13.47;;;;;;;-3.36;63.14;97319.81;5062005;28;20156;-71
2022/01/21 10:57:08;;;;;;;39.10;14.50;;;;;;;-3.37;63.03;97314.69;5032514;28;20046;-70
2022/01/21 10:59:48;;;;;;;39.23;13.50;;;;;;;-3.36;62.80;97306.44;5034187;28;20060;-71
2022/01/21 11:02:15;;;;;;;49.50;16.40;;;;;;;-3.32;62.88;97306.75;5033181;28;20502;-71
2022/01/21 11:04:42;;;;;;;38.00;14.23;;;;;;;-3.26;62.73;97307.66;5046265;28;20057;-70
2022/01/21 11:07:10;;;;;;;41.30;13.87;;;;;;;-3.24;62.39;97308.22;5040124;28;20077;-70
2022/01/21 11:09:39;;;;;;;35.73;14.37;;;;;;;-3.21;62.65;97310.38;5064548;28;20595;-70
2022/01/21 11:12:11;;;;;;;32.90;14.83;;;;;;;-3.25;62.70;97310.06;5045691;28;20053;-71
2022/01/21 11:14:38;;;;;;;33.87;13.77;;;;;;;-3.25;62.60;97317.28;5049703;28;20575;-71
2022/01/21 11:17:08;;;;;;;32.35;13.23;;;;;;;-3.53;62.62;97260.22;5037552;28;20111;-70
2022/01/21 11:19:35;;;;;;;34.87;14.27;;;;;;;-3.25;62.52;97303.91;5037500;28;20064;-71
2022/01/21 11:22:04;;;;;;;43.30;14.90;;;;;;;-3.25;62.51;97299.38;5034702;28;20045;-71
2022/01/21 11:24:31;;;;;;;43.50;14.50;;;;;;;-3.24;62.60;97308.22;5035273;28;20055;-70
2022/01/21 11:27:13;;;;;;;46.83;15.95;;;;;;;-3.27;62.51;97298.81;5039120;28;20111;-72
2022/01/21 11:29:43;;;;;;;36.33;14.43;;;;;;;-3.27;62.55;97298.81;5039141;28;20072;-71
2022/01/21 11:32:10;;;;;;;36.05;13.82;;;;;;;-3.29;62.30;97298.25;5038104;28;20041;-72
2022/01/21 11:34:37;;;;;;;48.23;14.87;;;;;;;-3.22;62.36;97306.88;5040959;28;20505;-74
2022/01/21 11:37:05;;;;;;;38.07;14.60;;;;;;;-3.22;62.36;97300.75;5022467;28;20115;-73
2022/01/21 11:39:32;;;;;;;41.80;14.93;;;;;;;-3.22;62.36;97301.53;5048981;28;20108;-74
2022/01/21 11:42:01;;;;;;;43.88;14.68;;;;;;;-3.20;62.31;97302.13;5049762;28;20387;-74
2022/01/21 11:44:30;;;;;;;35.87;14.27;;;;;;;-3.30;62.20;97281.38;5040087;28;20401;-74
2022/01/21 11:47:14;;;;;;;38.43;14.93;;;;;;;-3.19;62.09;97302.91;5038230;28;20045;-74
2022/01/21 11:49:42;;;;;;;41.17;14.63;;;;;;;-3.21;62.19;97300.47;5031577;28;20119;-75
2022/01/21 11:52:12;;;;;;;37.90;14.93;;;;;;;-3.20;61.89;97301.31;5030762;28;20053;-75
2022/01/21 11:54:39;;;;;;;40.70;14.80;;;;;;;-3.21;62.07;97302.38;5043136;28;20489;-74
2022/01/21 11:57:07;;;;;;;39.23;15.23;;;;;;;-3.28;62.27;97303.38;5034192;28;20417;-75
2022/01/21 11:59:46;;;;;;;38.97;14.80;;;;;;;-3.32;62.22;97310.22;5001320;28;20509;-74
2022/01/21 12:02:19;;;;;;;37.37;15.70;;;;;;;-3.31;62.09;97295.81;5049636;28;20135;-73
2022/01/21 12:04:47;;;;;;;39.27;14.50;;;;;;;-3.33;61.93;97291.78;5043237;28;20575;-72
2022/01/21 12:07:54;;;;;;;49.90;16.07;;;;;;;-3.32;61.87;97286.19;5047741;28;20052;-73
2022/01/21 12:10:31;;;;;;;43.73;14.67;;;;;;;-3.36;61.77;97298.41;5044020;28;20052;-74
2022/01/21 12:13:08;;;;;;;39.33;14.37;;;;;;;-3.38;61.90;97292.50;5047391;28;20428;-73
2022/01/21 12:19:08;;;;;;;47.33;16.13;;;;;;;-3.47;61.83;97289.44;5046833;28;20065;-72
2022/01/21 12:21:37;;;;;;;51.07;15.73;;;;;;;-3.50;61.83;97283.78;5036408;28;20412;-74
2022/01/21 12:24:04;;;;;;;48.13;16.00;;;;;;;-3.50;61.81;97281.94;5049534;28;20159;-72
2022/01/21 12:26:35;;;;;;;43.05;15.73;;;;;;;-3.49;61.83;97282.72;5036389;28;20417;-69